Time;durP1;ratioP1;P1;durP2;ratioP2;P2;SDS_P1;SDS_P2;PMS_P1;PMS_P2;Temp;Humidity;BMP_temperature;BMP_pressure;BME280_temperature;BME280_humidity;BME280_pressure;Samples;Min_cycle;Max_cycle;Signal;HPM_P1;HPM_P2
2022/09/24 00:01:08;;;;;;;5.40;4.90;;;;;;;;;;5051121;28;20200;-47
2022/09/24 00:03:34;;;;;;;5.97;5.37;;;;;;;;;;5052955;28;20211;-46
2022/09/24 00:06:01;;;;;;;5.70;5.07;;;;;;;;;;5052559;28;20234;-46
2022/09/24 00:08:27;;;;;;;6.30;5.47;;;;;;;;;;5050274;28;20271;-46
2022/09/24 00:10:56;;;;;;;5.17;4.77;;;;;;;;;;5052341;28;20196;-47
2022/09/24 00:13:22;;;;;;;6.50;5.10;;;;;;;;;;5052932;28;20204;-47
2022/09/24 00:15:49;;;;;;;5.77;5.27;;;;;;;;;;5052811;28;20224;-47
2022/09/24 00:18:16;;;;;;;7.20;5.30;;;;;;;;;;5052705;28;20192;-47
2022/09/24 00:20:42;;;;;;;5.87;5.27;;;;;;;;;;5050852;28;20637;-47
2022/09/24 00:23:09;;;;;;;5.90;5.40;;;;;;;;;;5052698;28;20196;-47
2022/09/24 00:28:25;;;;;;;10.00;9.00;;;;;;;;;;5052918;28;20247;-47
2022/09/24 00:30:51;;;;;;;6.90;5.77;;;;;;;;;;5052517;28;20319;-45
2022/09/24 00:33:17;;;;;;;6.00;5.40;;;;;;;;;;5052633;28;20250;-45
2022/09/24 00:35:43;;;;;;;6.20;5.60;;;;;;;;;;5050994;28;20266;-47
2022/09/24 00:38:10;;;;;;;6.07;5.43;;;;;;;;;;5052514;28;20204;-44
2022/09/24 00:40:38;;;;;;;7.50;5.77;;;;;;;;;;5051668;28;20224;-45
2022/09/24 00:43:19;;;;;;;5.90;5.30;;;;;;;;;;5050613;28;20231;-45
2022/09/24 00:45:46;;;;;;;6.93;5.93;;;;;;;;;;5051872;28;20207;-47
2022/09/24 00:48:12;;;;;;;6.50;5.73;;;;;;;;;;5052211;28;20204;-47
2022/09/24 00:50:38;;;;;;;6.13;5.63;;;;;;;;;;5050162;28;20246;-47
2022/09/24 00:53:08;;;;;;;7.07;6.03;;;;;;;;;;5051994;28;20616;-47
2022/09/24 00:55:35;;;;;;;5.50;5.00;;;;;;;;;;5050372;28;20214;-45
2022/09/24 00:58:02;;;;;;;6.50;5.90;;;;;;;;;;5051894;28;20200;-47
2022/09/24 01:00:29;;;;;;;7.47;5.70;;;;;;;;;;5052009;28;20669;-44
2022/09/24 01:03:00;;;;;;;6.03;5.40;;;;;;;;;;5050357;28;20666;-45
2022/09/24 01:05:26;;;;;;;5.73;5.23;;;;;;;;;;5051794;28;20287;-45
2022/09/24 01:07:52;;;;;;;6.23;5.70;;;;;;;;;;5051916;28;20306;-47
2022/09/24 01:10:46;;;;;;;6.30;5.50;;;;;;;;;;5050499;28;20199;-47
2022/09/24 01:13:13;;;;;;;6.07;5.57;;;;;;;;;;5051393;28;20203;-44
2022/09/24 01:15:42;;;;;;;6.23;5.63;;;;;;;;;;5051767;28;20192;-46
2022/09/24 01:18:14;;;;;;;6.53;5.83;;;;;;;;;;5051776;28;20196;-46
2022/09/24 01:20:51;;;;;;;6.60;5.60;;;;;;;;;;5051303;28;20271;-47
2022/09/24 01:23:32;;;;;;;6.27;5.67;;;;;;;;;;5051831;28;20266;-47
2022/09/24 01:26:07;;;;;;;6.70;6.10;;;;;;;;;;5035037;28;20573;-46
2022/09/24 01:28:39;;;;;;;6.73;6.17;;;;;;;;;;5052097;28;20204;-46
2022/09/24 01:31:10;;;;;;;7.27;6.30;;;;;;;;;;5051512;28;20236;-46
2022/09/24 01:33:36;;;;;;;7.47;6.80;;;;;;;;;;5051368;28;20643;-47
2022/09/24 01:36:07;;;;;;;8.73;7.00;;;;;;;;;;5049943;28;20207;-46
2022/09/24 01:38:36;;;;;;;11.43;8.33;;;;;;;;;;5050341;28;20203;-46
2022/09/24 01:41:03;;;;;;;9.07;8.17;;;;;;;;;;5051521;28;20568;-46
2022/09/24 01:43:29;;;;;;;8.33;7.53;;;;;;;;;;5051233;28;20200;-46
2022/09/24 01:45:58;;;;;;;9.13;8.23;;;;;;;;;;5051254;28;20254;-47
2022/09/24 01:48:25;;;;;;;8.30;7.27;;;;;;;;;;5049568;28;20213;-47
2022/09/24 01:50:54;;;;;;;9.50;8.53;;;;;;;;;;5051027;28;20219;-47
2022/09/24 01:53:23;;;;;;;8.47;7.47;;;;;;;;;;5050909;28;20247;-47
2022/09/24 01:55:51;;;;;;;10.37;9.23;;;;;;;;;;5051202;28;20564;-47
2022/09/24 01:58:19;;;;;;;12.53;9.73;;;;;;;;;;5049683;28;20200;-46
2022/09/24 02:00:47;;;;;;;9.63;8.73;;;;;;;;;;5051069;28;20224;-46
2022/09/24 02:03:14;;;;;;;8.60;7.80;;;;;;;;;;5050883;28;20196;-47
2022/09/24 02:05:44;;;;;;;10.93;9.83;;;;;;;;;;5049362;28;20212;-47
2022/09/24 02:08:12;;;;;;;10.40;9.40;;;;;;;;;;5050897;28;20224;-47
2022/09/24 02:10:41;;;;;;;9.63;8.73;;;;;;;;;;5050957;28;20196;-47
2022/09/24 02:13:09;;;;;;;12.23;11.10;;;;;;;;;;5051158;28;20207;-46
2022/09/24 02:15:38;;;;;;;13.37;12.07;;;;;;;;;;5048988;28;20220;-45
2022/09/24 02:18:07;;;;;;;13.93;12.53;;;;;;;;;;5050774;28;20717;-46
2022/09/24 02:20:33;;;;;;;13.07;11.47;;;;;;;;;;5050697;28;20232;-47
2022/09/24 02:23:00;;;;;;;12.73;11.43;;;;;;;;;;5051023;28;20219;-47
2022/09/24 02:25:38;;;;;;;14.93;12.10;;;;;;;;;;5050868;28;20290;-46
2022/09/24 02:28:04;;;;;;;14.57;13.13;;;;;;;;;;5050953;28;20560;-46
2022/09/24 02:30:36;;;;;;;16.20;13.10;;;;;;;;;;5050641;28;20236;-47
2022/09/24 02:34:19;;;;;;;12.33;11.13;;;;;;;;;;5049189;28;20287;-47
2022/09/24 02:35:52;;;;;;;15.10;12.77;;;;;;;;;;5050441;28;20756;-47
2022/09/24 02:38:19;;;;;;;12.13;10.97;;;;;;;;;;5049792;28;20200;-47
2022/09/24 02:40:46;;;;;;;12.47;11.17;;;;;;;;;;5048428;28;20228;-46
2022/09/24 02:43:12;;;;;;;13.03;11.67;;;;;;;;;;5050524;28;20207;-46
2022/09/24 02:45:38;;;;;;;12.20;10.80;;;;;;;;;;5050434;28;20223;-52
2022/09/24 02:48:04;;;;;;;10.63;9.67;;;;;;;;;;5050424;28;20207;-45
2022/09/24 02:50:30;;;;;;;11.57;10.47;;;;;;;;;;5052669;28;20557;-46
2022/09/24 02:52:57;;;;;;;11.53;10.33;;;;;;;;;;5054164;28;20202;-46
2022/09/24 02:55:24;;;;;;;12.13;10.47;;;;;;;;;;5054238;28;20251;-45
2022/09/24 02:57:50;;;;;;;10.83;9.83;;;;;;;;;;5051785;28;20222;-46
2022/09/24 03:00:19;;;;;;;11.13;10.10;;;;;;;;;;5054177;28;20701;-46
2022/09/24 03:02:46;;;;;;;11.27;10.17;;;;;;;;;;5054205;28;20208;-46
2022/09/24 03:05:12;;;;;;;11.90;10.80;;;;;;;;;;5054470;28;20192;-46
2022/09/24 03:07:38;;;;;;;10.83;9.83;;;;;;;;;;5054151;28;20226;-46
2022/09/24 03:10:04;;;;;;;11.53;10.43;;;;;;;;;;5054421;28;20188;-45
2022/09/24 03:12:32;;;;;;;11.23;10.23;;;;;;;;;;5050369;28;20197;-45
2022/09/24 03:14:58;;;;;;;11.13;9.90;;;;;;;;;;5052193;28;20217;-46
2022/09/24 03:17:24;;;;;;;11.77;10.70;;;;;;;;;;5054254;28;20196;-46
2022/09/24 03:19:50;;;;;;;11.60;10.50;;;;;;;;;;5052347;28;20701;-46
2022/09/24 03:22:19;;;;;;;11.80;10.70;;;;;;;;;;5053930;28;20196;-46
2022/09/24 03:24:45;;;;;;;12.87;11.77;;;;;;;;;;5053718;28;20192;-46
2022/09/24 03:27:11;;;;;;;12.27;11.17;;;;;;;;;;5053782;28;20720;-47
2022/09/24 03:32:23;;;;;;;11.63;10.53;;;;;;;;;;5052199;28;20202;-46
2022/09/24 03:34:49;;;;;;;11.40;10.30;;;;;;;;;;5053555;28;20604;-46
2022/09/24 03:37:15;;;;;;;11.17;10.07;;;;;;;;;;5051678;28;20228;-47
2022/09/24 03:39:41;;;;;;;12.47;11.07;;;;;;;;;;5051468;28;20572;-47
2022/09/24 03:42:07;;;;;;;12.17;11.10;;;;;;;;;;5053311;28;20250;-46
2022/09/24 03:44:33;;;;;;;12.03;10.93;;;;;;;;;;5049433;28;20232;-46
2022/09/24 03:47:00;;;;;;;14.20;12.30;;;;;;;;;;5053281;28;20200;-46
2022/09/24 03:49:26;;;;;;;13.53;12.23;;;;;;;;;;5051498;28;20206;-47
2022/09/24 03:51:52;;;;;;;13.60;12.30;;;;;;;;;;5053042;28;20197;-47
2022/09/24 03:54:18;;;;;;;13.47;12.17;;;;;;;;;;5051795;28;20196;-47
2022/09/24 03:56:44;;;;;;;16.13;14.43;;;;;;;;;;5051570;28;20200;-47
2022/09/24 03:59:10;;;;;;;15.97;14.47;;;;;;;;;;5053133;28;20231;-47
2022/09/24 04:01:37;;;;;;;17.20;15.50;;;;;;;;;;5050451;28;20274;-48
2022/09/24 04:04:04;;;;;;;17.53;15.83;;;;;;;;;;5053327;28;20215;-48
2022/09/24 04:06:31;;;;;;;17.93;14.93;;;;;;;;;;5052932;28;20219;-47
2022/09/24 04:08:57;;;;;;;15.20;13.80;;;;;;;;;;5051995;28;20756;-47
2022/09/24 04:11:23;;;;;;;16.77;15.10;;;;;;;;;;5052245;28;20200;-47
2022/09/24 04:13:50;;;;;;;17.03;15.23;;;;;;;;;;5052419;28;20196;-46
2022/09/24 04:16:16;;;;;;;18.57;16.67;;;;;;;;;;5052888;28;20203;-47
2022/09/24 04:18:42;;;;;;;17.10;15.60;;;;;;;;;;5052637;28;20255;-47
2022/09/24 04:21:09;;;;;;;16.37;14.47;;;;;;;;;;5052893;28;20230;-47
2022/09/24 04:23:35;;;;;;;19.03;17.00;;;;;;;;;;5052648;28;20670;-47
2022/09/24 04:26:01;;;;;;;18.23;16.33;;;;;;;;;;5052850;28;20192;-47
2022/09/24 04:28:28;;;;;;;19.10;17.20;;;;;;;;;;5052654;28;20726;-47
2022/09/24 04:30:54;;;;;;;18.90;17.00;;;;;;;;;;5052785;28;20247;-47
2022/09/24 04:33:20;;;;;;;16.73;15.23;;;;;;;;;;5052765;28;20275;-46
2022/09/24 04:35:47;;;;;;;16.63;15.23;;;;;;;;;;5051758;28;20706;-46
2022/09/24 04:38:14;;;;;;;17.47;15.77;;;;;;;;;;5052247;28;20553;-48
2022/09/24 04:40:40;;;;;;;18.73;16.90;;;;;;;;;;5052510;28;20236;-47
2022/09/24 04:43:06;;;;;;;17.60;15.83;;;;;;;;;;5052467;28;20214;-47
2022/09/24 04:45:32;;;;;;;18.23;16.53;;;;;;;;;;5052395;28;20536;-47
2022/09/24 04:47:58;;;;;;;18.40;16.60;;;;;;;;;;5052586;28;20200;-47
2022/09/24 04:50:25;;;;;;;18.07;16.17;;;;;;;;;;5052372;28;20276;-47
2022/09/24 04:52:51;;;;;;;16.50;15.00;;;;;;;;;;5052340;28;20199;-47
2022/09/24 04:55:19;;;;;;;18.43;16.40;;;;;;;;;;5052333;28;20656;-47
2022/09/24 04:57:45;;;;;;;18.23;16.33;;;;;;;;;;5052160;28;20251;-47
2022/09/24 05:00:14;;;;;;;17.77;16.03;;;;;;;;;;5052211;28;20220;-47
2022/09/24 05:02:40;;;;;;;19.93;18.03;;;;;;;;;;5052042;28;20888;-47
2022/09/24 05:05:06;;;;;;;19.33;17.33;;;;;;;;;;5052113;28;20197;-52
2022/09/24 05:07:32;;;;;;;20.30;18.40;;;;;;;;;;5052214;28;20224;-54
2022/09/24 05:09:58;;;;;;;20.30;18.17;;;;;;;;;;5051964;28;20242;-47
2022/09/24 05:12:25;;;;;;;21.13;19.10;;;;;;;;;;5052022;28;20673;-46
2022/09/24 05:14:51;;;;;;;20.23;18.17;;;;;;;;;;5051645;28;20611;-46
2022/09/24 05:17:17;;;;;;;20.23;18.17;;;;;;;;;;5051747;28;20200;-47
2022/09/24 05:19:43;;;;;;;20.43;18.30;;;;;;;;;;5051323;28;20271;-47
2022/09/24 05:22:09;;;;;;;20.27;18.37;;;;;;;;;;5051854;28;20198;-46
2022/09/24 05:24:35;;;;;;;20.73;18.70;;;;;;;;;;5051590;28;20192;-47
2022/09/24 05:27:08;;;;;;;21.03;19.03;;;;;;;;;;5051738;28;20655;-47
2022/09/24 05:29:36;;;;;;;19.03;17.23;;;;;;;;;;5051883;28;20204;-46
2022/09/24 05:32:04;;;;;;;20.83;18.83;;;;;;;;;;5051481;28;20239;-46
2022/09/24 05:34:30;;;;;;;19.43;17.57;;;;;;;;;;5051520;28;20200;-46
2022/09/24 05:36:56;;;;;;;19.50;17.60;;;;;;;;;;5051588;28;20271;-47
2022/09/24 05:39:22;;;;;;;20.50;18.60;;;;;;;;;;5048732;28;20216;-47
2022/09/24 05:41:48;;;;;;;20.13;17.40;;;;;;;;;;5051106;28;20204;-47
2022/09/24 05:44:14;;;;;;;20.53;18.33;;;;;;;;;;5050905;28;20203;-47
2022/09/24 05:46:41;;;;;;;19.37;17.63;;;;;;;;;;5049345;28;20228;-48
2022/09/24 05:49:07;;;;;;;23.03;20.80;;;;;;;;;;5050795;28;20207;-48
2022/09/24 05:51:33;;;;;;;20.03;18.23;;;;;;;;;;5050927;28;20571;-47
2022/09/24 05:53:59;;;;;;;22.03;19.80;;;;;;;;;;5051366;28;20262;-47
2022/09/24 05:56:25;;;;;;;19.83;18.00;;;;;;;;;;5049742;28;20275;-47
2022/09/24 05:58:51;;;;;;;20.97;18.90;;;;;;;;;;5050819;28;20295;-47
2022/09/24 06:01:17;;;;;;;22.73;20.53;;;;;;;;;;5049143;28;20228;-47
2022/09/24 06:03:44;;;;;;;22.10;20.00;;;;;;;;;;5049065;28;20589;-47
2022/09/24 06:06:10;;;;;;;21.10;19.10;;;;;;;;;;5050649;28;20204;-46
2022/09/24 06:08:36;;;;;;;21.40;19.20;;;;;;;;;;5046778;28;20247;-45
2022/09/24 06:11:04;;;;;;;22.70;20.40;;;;;;;;;;5048848;28;20251;-46
2022/09/24 06:13:33;;;;;;;20.57;18.67;;;;;;;;;;5048784;28;20196;-47
2022/09/24 06:16:00;;;;;;;21.43;19.33;;;;;;;;;;5050844;28;20204;-46
2022/09/24 06:18:26;;;;;;;22.97;20.87;;;;;;;;;;5050419;28;20197;-47
2022/09/24 06:20:54;;;;;;;25.17;22.67;;;;;;;;;;5050592;28;20592;-47
2022/09/24 06:23:20;;;;;;;23.23;21.03;;;;;;;;;;5051668;28;20682;-47
2022/09/24 06:25:48;;;;;;;24.47;22.00;;;;;;;;;;5057417;28;20250;-46
2022/09/24 06:28:14;;;;;;;25.97;23.37;;;;;;;;;;5058131;28;20616;-47
2022/09/24 06:30:40;;;;;;;24.20;21.67;;;;;;;;;;5057068;28;20232;-45
2022/09/24 06:33:08;;;;;;;23.23;20.87;;;;;;;;;;5057626;28;20192;-47
2022/09/24 06:35:34;;;;;;;22.47;20.20;;;;;;;;;;5057315;28;20196;-47
2022/09/24 06:38:02;;;;;;;26.70;24.07;;;;;;;;;;5057288;28;20247;-46
2022/09/24 06:40:28;;;;;;;25.33;22.83;;;;;;;;;;5055622;28;20243;-47
2022/09/24 06:42:54;;;;;;;24.33;21.73;;;;;;;;;;5056685;28;20218;-46
2022/09/24 06:45:20;;;;;;;23.33;21.13;;;;;;;;;;5057092;28;20189;-46
2022/09/24 06:47:52;;;;;;;25.90;23.20;;;;;;;;;;5056731;28;20235;-45
2022/09/24 06:50:18;;;;;;;27.43;24.83;;;;;;;;;;5053661;28;20200;-46
2022/09/24 06:52:43;;;;;;;28.10;25.13;;;;;;;;;;5056181;28;20196;-46
2022/09/24 06:55:11;;;;;;;23.80;21.60;;;;;;;;;;5057156;28;20747;-46
2022/09/24 06:57:37;;;;;;;24.13;20.47;;;;;;;;;;5056886;28;20204;-47
2022/09/24 07:00:03;;;;;;;22.60;20.50;;;;;;;;;;5055185;28;20220;-46
2022/09/24 07:02:30;;;;;;;21.43;19.33;;;;;;;;;;5056710;28;20204;-47
2022/09/24 07:04:55;;;;;;;23.03;20.63;;;;;;;;;;5055027;28;20223;-47
2022/09/24 07:07:34;;;;;;;25.33;22.73;;;;;;;;;;5057179;28;20266;-48
2022/09/24 07:10:00;;;;;;;26.67;24.07;;;;;;;;;;5056855;28;20196;-46
2022/09/24 07:12:30;;;;;;;27.33;24.73;;;;;;;;;;5055030;28;20218;-46
2022/09/24 07:14:56;;;;;;;29.83;25.80;;;;;;;;;;5055497;28;20799;-45
2022/09/24 07:17:22;;;;;;;25.40;22.80;;;;;;;;;;5056894;28;20236;-45
2022/09/24 07:19:48;;;;;;;24.10;21.80;;;;;;;;;;5056615;28;20258;-45
2022/09/24 07:22:14;;;;;;;24.60;22.20;;;;;;;;;;5056840;28;20729;-45
2022/09/24 07:24:40;;;;;;;24.33;22.03;;;;;;;;;;5056514;28;20208;-46
2022/09/24 07:27:07;;;;;;;29.07;26.20;;;;;;;;;;5057356;28;20283;-46
2022/09/24 07:29:34;;;;;;;27.80;25.00;;;;;;;;;;5057278;28;20246;-47
2022/09/24 07:32:01;;;;;;;29.30;26.40;;;;;;;;;;5056853;28;20240;-47
2022/09/24 07:34:27;;;;;;;27.43;24.77;;;;;;;;;;5052628;28;20197;-46
2022/09/24 07:36:54;;;;;;;30.03;26.93;;;;;;;;;;5052785;28;20204;-45
2022/09/24 07:39:20;;;;;;;29.03;26.00;;;;;;;;;;5053409;28;20243;-46
2022/09/24 07:41:46;;;;;;;30.47;27.33;;;;;;;;;;5051926;28;20200;-46
2022/09/24 07:44:12;;;;;;;29.73;26.53;;;;;;;;;;5053168;28;20632;-45
2022/09/24 07:46:40;;;;;;;36.40;29.50;;;;;;;;;;5053144;28;20200;-45
2022/09/24 07:49:06;;;;;;;32.23;29.03;;;;;;;;;;5050809;28;20201;-46
2022/09/24 07:51:32;;;;;;;31.30;28.20;;;;;;;;;;5052817;28;20200;-46
2022/09/24 07:53:58;;;;;;;29.53;26.53;;;;;;;;;;5052744;28;20212;-47
2022/09/24 07:56:25;;;;;;;27.17;24.57;;;;;;;;;;5051550;28;20199;-46
2022/09/24 07:58:51;;;;;;;30.10;27.10;;;;;;;;;;5052968;28;20299;-47
2022/09/24 08:01:17;;;;;;;28.37;25.47;;;;;;;;;;5050504;28;20220;-47
2022/09/24 08:03:45;;;;;;;29.23;26.20;;;;;;;;;;5050964;28;20204;-46
2022/09/24 08:06:11;;;;;;;31.03;27.93;;;;;;;;;;5052784;28;20203;-46
2022/09/24 08:08:37;;;;;;;28.80;26.00;;;;;;;;;;5052312;28;20216;-46
2022/09/24 08:11:04;;;;;;;27.17;24.57;;;;;;;;;;5052393;28;20200;-46
2022/09/24 08:13:33;;;;;;;27.03;24.43;;;;;;;;;;5052736;28;20250;-46
2022/09/24 08:15:59;;;;;;;24.37;21.90;;;;;;;;;;5050559;28;20220;-46
2022/09/24 08:18:25;;;;;;;23.10;20.83;;;;;;;;;;5052179;28;20207;-47
2022/09/24 08:20:52;;;;;;;25.13;22.73;;;;;;;;;;5052279;28;20228;-47
2022/09/24 08:23:19;;;;;;;21.73;19.63;;;;;;;;;;5052204;28;20224;-46
2022/09/24 08:25:45;;;;;;;23.80;21.60;;;;;;;;;;5051711;28;20196;-46
2022/09/24 08:28:11;;;;;;;23.60;21.30;;;;;;;;;;5048557;28;20223;-47
2022/09/24 08:30:39;;;;;;;25.00;22.40;;;;;;;;;;5051639;28;20267;-55
2022/09/24 08:33:06;;;;;;;24.17;21.77;;;;;;;;;;5051956;28;20594;-56
2022/09/24 08:35:32;;;;;;;23.97;21.50;;;;;;;;;;5050579;28;20576;-54
2022/09/24 08:38:00;;;;;;;23.73;21.47;;;;;;;;;;5052625;28;20196;-46
2022/09/24 08:40:28;;;;;;;23.70;21.37;;;;;;;;;;5051159;28;20212;-47
2022/09/24 08:42:57;;;;;;;23.10;20.83;;;;;;;;;;5051560;28;20234;-46
2022/09/24 08:48:12;;;;;;;42.43;31.33;;;;;;;;;;5051668;28;20191;-46
2022/09/24 08:50:41;;;;;;;33.23;25.77;;;;;;;;;;5049087;28;20199;-46
2022/09/24 08:53:14;;;;;;;23.87;21.53;;;;;;;;;;5052007;28;20196;-46
2022/09/24 08:55:42;;;;;;;24.53;22.03;;;;;;;;;;5052188;28;20351;-46
2022/09/24 08:58:15;;;;;;;25.40;21.90;;;;;;;;;;5052335;28;20251;-46
2022/09/24 09:00:43;;;;;;;23.23;20.80;;;;;;;;;;5051955;28;20310;-46
2022/09/24 09:03:15;;;;;;;26.50;23.30;;;;;;;;;;5052049;28;20251;-49
2022/09/24 09:05:48;;;;;;;38.70;34.50;;;;;;;;;;5052074;28;20206;-47
2022/09/24 09:08:19;;;;;;;24.77;22.27;;;;;;;;;;5051848;28;20230;-47
2022/09/24 09:10:45;;;;;;;24.90;22.40;;;;;;;;;;5050271;28;20197;-47
2022/09/24 09:13:15;;;;;;;26.20;23.43;;;;;;;;;;5051335;28;20204;-47
2022/09/24 09:15:43;;;;;;;27.50;24.80;;;;;;;;;;5049418;28;20200;-47
2022/09/24 09:18:12;;;;;;;27.07;24.13;;;;;;;;;;5049240;28;20211;-47
2022/09/24 09:20:40;;;;;;;26.93;24.13;;;;;;;;;;5050973;28;20228;-47
2022/09/24 09:23:12;;;;;;;27.53;23.30;;;;;;;;;;5049763;28;20200;-47
2022/09/24 09:25:41;;;;;;;27.87;25.03;;;;;;;;;;5048956;28;20203;-47
2022/09/24 09:28:14;;;;;;;27.40;24.30;;;;;;;;;;5051022;28;20283;-47
2022/09/24 09:30:44;;;;;;;28.77;25.83;;;;;;;;;;5050980;28;20236;-45
2022/09/24 09:33:18;;;;;;;31.33;26.63;;;;;;;;;;5051159;28;20267;-45
2022/09/24 09:35:49;;;;;;;29.43;26.40;;;;;;;;;;5050908;28;20235;-46
2022/09/24 09:38:22;;;;;;;28.90;25.33;;;;;;;;;;5049049;28;20669;-46
2022/09/24 09:40:52;;;;;;;28.87;25.77;;;;;;;;;;5051016;28;20224;-46
2022/09/24 09:43:19;;;;;;;28.90;25.90;;;;;;;;;;5050945;28;20204;-47
2022/09/24 09:45:50;;;;;;;29.67;25.40;;;;;;;;;;5050854;28;20196;-46
2022/09/24 09:48:18;;;;;;;29.60;26.40;;;;;;;;;;5051221;28;20224;-46
2022/09/24 09:50:47;;;;;;;30.83;27.27;;;;;;;;;;5050559;28;20550;-46
2022/09/24 09:53:20;;;;;;;29.83;26.67;;;;;;;;;;5051007;28;20196;-46
2022/09/24 09:55:52;;;;;;;29.07;26.27;;;;;;;;;;5048542;28;20208;-47
2022/09/24 09:58:19;;;;;;;29.03;25.10;;;;;;;;;;5048752;28;20196;-47
2022/09/24 10:00:48;;;;;;;29.23;23.70;;;;;;;;;;5050410;28;20227;-46
2022/09/24 10:03:21;;;;;;;28.77;25.77;;;;;;;;;;5051001;28;20611;-46
2022/09/24 10:05:51;;;;;;;25.97;23.17;;;;;;;;;;5050324;28;20206;-46
2022/09/24 10:08:20;;;;;;;26.87;24.00;;;;;;;;;;5049366;28;20699;-46
2022/09/24 10:10:54;;;;;;;27.00;24.20;;;;;;;;;;5051063;28;20192;-46
2022/09/24 10:13:20;;;;;;;27.03;24.23;;;;;;;;;;5050888;28;20204;-46
2022/09/24 10:15:48;;;;;;;26.53;23.73;;;;;;;;;;5051063;28;20238;-46
2022/09/24 10:18:15;;;;;;;28.23;25.30;;;;;;;;;;5051115;28;20378;-46
2022/09/24 10:20:45;;;;;;;28.00;24.87;;;;;;;;;;5051050;28;20224;-46
2022/09/24 10:23:14;;;;;;;26.20;23.47;;;;;;;;;;5050282;28;20192;-46
2022/09/24 10:25:40;;;;;;;27.90;24.83;;;;;;;;;;5050624;28;20609;-46
2022/09/24 10:30:55;;;;;;;25.73;23.07;;;;;;;;;;5050579;28;20240;-46
2022/09/24 10:33:21;;;;;;;30.10;24.77;;;;;;;;;;5050753;28;20766;-46
2022/09/24 10:35:47;;;;;;;25.50;22.77;;;;;;;;;;5050395;28;20196;-46
2022/09/24 10:38:15;;;;;;;29.53;25.77;;;;;;;;;;5051117;28;20203;-46
2022/09/24 10:40:41;;;;;;;24.93;21.70;;;;;;;;;;5048560;28;20232;-47
2022/09/24 10:43:16;;;;;;;27.33;23.37;;;;;;;;;;5050149;28;20196;-46
2022/09/24 10:45:53;;;;;;;26.03;23.23;;;;;;;;;;5049486;28;20202;-46
2022/09/24 10:48:23;;;;;;;27.07;23.07;;;;;;;;;;5050142;28;20192;-46
2022/09/24 10:50:53;;;;;;;22.83;20.40;;;;;;;;;;5049981;28;20202;-46
2022/09/24 10:53:21;;;;;;;21.57;19.30;;;;;;;;;;5049756;28;20204;-46
2022/09/24 10:55:55;;;;;;;23.17;20.87;;;;;;;;;;5049309;28;20196;-46
2022/09/24 10:58:32;;;;;;;23.33;20.40;;;;;;;;;;5050093;28;20282;-47
2022/09/24 11:01:03;;;;;;;21.63;19.33;;;;;;;;;;5049999;28;20648;-47
2022/09/24 11:03:37;;;;;;;23.27;20.80;;;;;;;;;;5048489;28;20200;-46
2022/09/24 11:06:10;;;;;;;25.00;21.87;;;;;;;;;;5048576;28;20262;-47
2022/09/24 11:08:45;;;;;;;25.27;21.97;;;;;;;;;;5050056;28;20224;-46
2022/09/24 11:11:20;;;;;;;23.07;20.47;;;;;;;;;;5052315;28;20627;-46
2022/09/24 11:13:50;;;;;;;23.80;21.20;;;;;;;;;;5054425;28;20203;-46
2022/09/24 11:16:23;;;;;;;22.97;19.97;;;;;;;;;;5054953;28;20192;-46
2022/09/24 11:18:53;;;;;;;23.40;20.87;;;;;;;;;;5053563;28;20204;-46
2022/09/24 11:21:27;;;;;;;24.47;21.93;;;;;;;;;;5053966;28;20244;-46
2022/09/24 11:24:00;;;;;;;23.23;20.77;;;;;;;;;;5053634;28;20204;-46
2022/09/24 11:26:28;;;;;;;22.03;19.83;;;;;;;;;;5053458;28;20601;-46
2022/09/24 11:29:09;;;;;;;21.97;19.17;;;;;;;;;;5053557;28;20255;-47
2022/09/24 11:31:39;;;;;;;20.77;18.07;;;;;;;;;;5053373;28;20235;-47
2022/09/24 11:34:13;;;;;;;21.80;19.47;;;;;;;;;;5052971;28;20335;-45
2022/09/24 11:36:47;;;;;;;21.33;19.13;;;;;;;;;;5051155;28;20583;-45
2022/09/24 11:39:20;;;;;;;19.93;17.93;;;;;;;;;;5053751;28;20223;-46
2022/09/24 11:41:49;;;;;;;19.43;17.50;;;;;;;;;;5051303;28;20224;-46
2022/09/24 11:44:33;;;;;;;20.13;17.83;;;;;;;;;;5053113;28;20732;-46
2022/09/24 11:47:11;;;;;;;22.00;19.63;;;;;;;;;;5052514;28;20662;-45
2022/09/24 11:49:42;;;;;;;23.27;18.67;;;;;;;;;;5053577;28;20258;-46
2022/09/24 11:52:11;;;;;;;20.57;18.50;;;;;;;;;;5053187;28;20204;-46
2022/09/24 11:54:39;;;;;;;21.20;19.07;;;;;;;;;;5053572;28;20196;-46
2022/09/24 11:57:11;;;;;;;21.23;19.03;;;;;;;;;;5052528;28;20196;-46
2022/09/24 11:59:41;;;;;;;20.53;18.43;;;;;;;;;;5053587;28;20715;-46
2022/09/24 12:02:12;;;;;;;21.43;19.17;;;;;;;;;;5053473;28;20192;-46
2022/09/24 12:04:45;;;;;;;21.53;19.23;;;;;;;;;;5053687;28;20204;-46
2022/09/24 12:07:13;;;;;;;22.77;20.17;;;;;;;;;;5051175;28;20220;-46
2022/09/24 12:09:42;;;;;;;22.70;20.30;;;;;;;;;;5053035;28;20725;-45
2022/09/24 12:12:11;;;;;;;22.93;20.43;;;;;;;;;;5052922;28;20212;-44
2022/09/24 12:14:43;;;;;;;23.67;20.47;;;;;;;;;;5051455;28;20200;-45
2022/09/24 12:17:16;;;;;;;23.90;21.10;;;;;;;;;;5051334;28;20621;-46
2022/09/24 12:19:47;;;;;;;21.13;18.93;;;;;;;;;;5052516;28;20204;-46
2022/09/24 12:22:14;;;;;;;22.70;19.30;;;;;;;;;;5052192;28;20647;-46
2022/09/24 12:24:43;;;;;;;22.70;20.30;;;;;;;;;;5050716;28;20235;-46
2022/09/24 12:27:11;;;;;;;23.70;20.60;;;;;;;;;;5052174;28;20631;-46
2022/09/24 12:35:20;;;;;;;23.47;19.80;;;;;;;;;;5052898;28;20211;-45
2022/09/24 12:37:49;;;;;;;17.80;15.97;;;;;;;;;;5053039;28;20291;-46
2022/09/24 12:40:23;;;;;;;18.57;16.60;;;;;;;;;;5053197;28;20278;-46
2022/09/24 12:42:51;;;;;;;20.00;17.90;;;;;;;;;;5053071;28;20192;-46
2022/09/24 12:45:19;;;;;;;24.27;20.60;;;;;;;;;;5052470;28;20208;-46
2022/09/24 12:47:48;;;;;;;18.77;16.87;;;;;;;;;;5052382;28;20223;-46
2022/09/24 12:50:18;;;;;;;19.07;17.13;;;;;;;;;;5052859;28;20617;-46
2022/09/24 12:52:44;;;;;;;19.13;17.20;;;;;;;;;;5052529;28;20212;-46
2022/09/24 12:55:18;;;;;;;18.20;16.40;;;;;;;;;;5052791;28;20196;-46
2022/09/24 12:57:50;;;;;;;17.90;16.00;;;;;;;;;;5053016;28;20219;-46
2022/09/24 13:00:31;;;;;;;19.20;16.07;;;;;;;;;;5052833;28;20552;-46
2022/09/24 13:02:58;;;;;;;16.43;14.77;;;;;;;;;;5052405;28;20548;-46
2022/09/24 13:05:29;;;;;;;16.63;14.93;;;;;;;;;;5052816;28;20208;-46
2022/09/24 13:07:56;;;;;;;19.40;17.50;;;;;;;;;;5052498;28;20222;-46
2022/09/24 13:10:24;;;;;;;20.43;18.23;;;;;;;;;;5052656;28;20604;-46
2022/09/24 13:12:51;;;;;;;22.97;20.47;;;;;;;;;;5052510;28;20218;-46
2022/09/24 13:15:26;;;;;;;22.17;19.77;;;;;;;;;;5052511;28;20204;-46
2022/09/24 13:18:03;;;;;;;23.33;21.00;;;;;;;;;;5052284;28;20571;-47
2022/09/24 13:20:30;;;;;;;22.33;19.93;;;;;;;;;;5052408;28;20224;-46
2022/09/24 13:22:57;;;;;;;23.63;21.13;;;;;;;;;;5052573;28;20196;-46
2022/09/24 13:25:24;;;;;;;22.20;19.40;;;;;;;;;;5052403;28;20204;-47
2022/09/24 13:28:00;;;;;;;21.30;18.97;;;;;;;;;;5052232;28;20184;-46
2022/09/24 13:30:34;;;;;;;21.20;18.53;;;;;;;;;;5052105;28;20694;-46
2022/09/24 13:33:08;;;;;;;20.13;17.90;;;;;;;;;;5050982;28;20222;-46
2022/09/24 13:35:41;;;;;;;22.63;20.23;;;;;;;;;;5052195;28;20207;-46
2022/09/24 13:38:08;;;;;;;20.00;17.77;;;;;;;;;;5052118;28;20246;-47
2022/09/24 13:40:36;;;;;;;21.30;18.60;;;;;;;;;;5051957;28;20232;-47
2022/09/24 13:43:04;;;;;;;22.53;20.23;;;;;;;;;;5051836;28;20196;-47
2022/09/24 13:45:31;;;;;;;20.73;18.80;;;;;;;;;;5052106;28;20200;-46
2022/09/24 13:47:58;;;;;;;27.13;24.47;;;;;;;;;;5033959;28;20682;-46
2022/09/24 13:50:28;;;;;;;20.13;18.03;;;;;;;;;;5051943;28;20235;-46
2022/09/24 13:52:57;;;;;;;22.40;20.07;;;;;;;;;;5051679;28;20211;-47
2022/09/24 13:55:26;;;;;;;21.83;19.53;;;;;;;;;;5051855;28;20287;-47
2022/09/24 13:57:52;;;;;;;22.23;18.63;;;;;;;;;;5051657;28;20239;-47
2022/09/24 14:00:19;;;;;;;25.00;22.30;;;;;;;;;;5051809;28;20248;-47
2022/09/24 14:02:52;;;;;;;23.70;21.40;;;;;;;;;;5051699;28;20197;-46
2022/09/24 14:05:19;;;;;;;23.23;20.83;;;;;;;;;;5051698;28;20654;-46
2022/09/24 14:07:53;;;;;;;24.53;21.93;;;;;;;;;;5051478;28;20769;-46
2022/09/24 14:10:19;;;;;;;23.57;21.27;;;;;;;;;;5051863;28;20230;-46
2022/09/24 14:12:45;;;;;;;23.63;21.23;;;;;;;;;;5051592;28;20283;-46
2022/09/24 14:15:14;;;;;;;25.47;22.30;;;;;;;;;;5051876;28;20196;-47
2022/09/24 14:17:40;;;;;;;24.23;21.73;;;;;;;;;;5051558;28;20220;-47
2022/09/24 14:20:12;;;;;;;19.90;18.00;;;;;;;;;;5051099;28;20223;-46
2022/09/24 14:22:40;;;;;;;22.77;20.57;;;;;;;;;;5051580;28;20287;-47
2022/09/24 14:25:08;;;;;;;23.57;21.17;;;;;;;;;;5051102;28;20228;-46
2022/09/24 14:27:38;;;;;;;22.43;20.10;;;;;;;;;;5051492;28;20200;-46
2022/09/24 14:30:05;;;;;;;23.37;21.07;;;;;;;;;;5051127;28;20267;-46
2022/09/24 14:32:32;;;;;;;22.70;20.57;;;;;;;;;;5051577;28;20228;-46
2022/09/24 14:35:00;;;;;;;22.47;20.20;;;;;;;;;;5050993;28;20196;-46
2022/09/24 14:37:27;;;;;;;22.40;20.17;;;;;;;;;;5051403;28;20192;-46
2022/09/24 14:39:57;;;;;;;22.70;20.33;;;;;;;;;;5051185;28;20198;-45
2022/09/24 14:42:27;;;;;;;18.43;16.53;;;;;;;;;;5051489;28;20287;-46
2022/09/24 14:44:54;;;;;;;21.60;18.80;;;;;;;;;;5052740;28;20210;-46